createdAt,value
2018-02-21T00:00:20.863Z,46.47
2018-02-21T00:05:23.546Z,52.17
2018-02-21T00:10:27.699Z,47.20
2018-02-21T00:15:30.511Z,47.27
2018-02-21T00:20:33.651Z,49.10
2018-02-21T00:25:36.291Z,49.63
2018-02-21T00:30:40.052Z,49.67
2018-02-21T00:35:42.696Z,45.17
2018-02-21T00:40:46.236Z,50.10
2018-02-21T00:45:49.617Z,44.20
2018-02-21T00:50:53.703Z,48.43
2018-02-21T00:55:57.121Z,47.73
2018-02-21T01:01:01.152Z,49.93
2018-02-21T01:06:03.796Z,48.73
2018-02-21T01:11:06.556Z,46.17
2018-02-21T01:16:09.200Z,44.87
2018-02-21T01:21:12.187Z,51.87
2018-02-21T01:26:14.783Z,50.47
2018-02-21T01:31:17.758Z,51.50
2018-02-21T01:36:21.161Z,46.40
2018-02-21T01:41:25.531Z,52.40
2018-02-21T01:46:28.122Z,54.10
2018-02-21T01:51:30.857Z,54.23
2018-02-21T01:56:33.469Z,51.07
2018-02-21T02:01:36.851Z,50.60
2018-02-21T02:06:39.438Z,53.67
2018-02-21T02:11:42.835Z,57.50
2018-02-21T02:16:46.231Z,49.57
2018-02-21T02:21:49.506Z,51.47
2018-02-21T02:26:52.148Z,47.97
2018-02-21T02:31:55.226Z,57.60
2018-02-21T02:36:57.827Z,54.07
2018-02-21T02:42:00.504Z,54.40
2018-02-21T02:47:03.118Z,58.27
2018-02-21T02:52:05.760Z,53.83
2018-02-21T02:57:08.439Z,48.80
2018-02-21T03:02:11.821Z,60.23
2018-02-21T03:07:14.460Z,49.90
2018-02-21T03:12:17.912Z,51.57
2018-02-21T03:17:21.301Z,52.57
2018-02-21T03:22:24.772Z,57.60
2018-02-21T03:27:27.395Z,58.30
2018-02-21T03:32:30.548Z,53.27
2018-02-21T03:37:33.949Z,56.63
2018-02-21T03:42:37.189Z,61.43
2018-02-21T03:47:39.815Z,51.90
2018-02-21T03:52:43.385Z,59.97
2018-02-21T03:57:45.978Z,55.90
2018-02-21T04:02:49.389Z,58.60
2018-02-21T04:07:52.019Z,55.87
2018-02-21T04:12:56.052Z,56.57
2018-02-21T04:17:59.457Z,58.37
2018-02-21T04:23:03.307Z,53.40
2018-02-21T04:28:05.894Z,54.13
2018-02-21T04:33:10.235Z,54.70
2018-02-21T04:38:12.869Z,54.07
2018-02-21T04:43:16.448Z,55.93
2018-02-21T04:48:19.851Z,53.90
2018-02-21T04:53:23.901Z,51.83
2018-02-21T04:58:32.152Z,54.93
2018-02-21T05:03:35.048Z,58.60
2018-02-21T05:08:37.676Z,52.43
2018-02-21T05:13:41.060Z,55.33
2018-02-21T05:18:43.701Z,59.33
2018-02-21T05:23:46.774Z,59.93
2018-02-21T05:28:49.369Z,60.37
2018-02-21T05:33:52.557Z,57.20
2018-02-21T05:38:55.944Z,56.30
2018-02-21T05:43:59.314Z,54.67
2018-02-21T05:49:01.951Z,56.23
2018-02-21T05:54:05.135Z,58.53
2018-02-21T05:59:07.768Z,67.93
2018-02-21T06:04:11.349Z,66.90
2018-02-21T06:09:13.975Z,68.93
2018-02-21T06:14:17.063Z,63.43
2018-02-21T06:19:19.697Z,61.57
2018-02-21T06:24:22.442Z,69.73
2018-02-21T06:29:25.064Z,68.50
2018-02-21T06:34:28.329Z,61.67
2018-02-21T06:39:30.958Z,61.70
2018-02-21T06:44:34.515Z,62.07
2018-02-21T06:49:37.184Z,61.27
2018-02-21T06:54:39.852Z,64.10
2018-02-21T06:59:42.462Z,63.07
2018-02-21T07:04:46.193Z,54.80
2018-02-21T07:09:49.578Z,64.90
2018-02-21T07:14:52.227Z,62.93
2018-02-21T07:19:54.872Z,60.13
2018-02-21T07:24:57.696Z,59.37
2018-02-21T07:30:01.087Z,58.27
2018-02-21T07:35:03.988Z,54.73
2018-02-21T07:40:06.587Z,57.67
2018-02-21T07:45:10.210Z,61.33
2018-02-21T07:50:12.822Z,57.17
2018-02-21T07:55:17.786Z,55.23
2018-02-21T08:00:21.173Z,56.87
2018-02-21T08:05:24.047Z,55.90
2018-02-21T08:10:26.634Z,61.30
2018-02-21T08:15:29.401Z,56.73
2018-02-21T08:20:32.028Z,62.57
2018-02-21T08:25:34.988Z,52.07
2018-02-21T08:30:37.624Z,59.23
2018-02-21T08:35:41.574Z,56.67
2018-02-21T08:40:44.211Z,82.30
2018-02-21T08:45:47.595Z,53.57
2018-02-21T08:50:50.221Z,51.03
2018-02-21T08:55:53.691Z,50.53
2018-02-21T09:00:56.321Z,53.30
2018-02-21T09:05:59.497Z,54.43
2018-02-21T09:11:02.858Z,48.13
2018-02-21T09:16:06.319Z,49.60
2018-02-21T09:21:09.712Z,50.43
2018-02-21T09:26:13.080Z,48.97
2018-02-21T09:31:15.700Z,47.60
2018-02-21T09:36:19.261Z,46.73
2018-02-21T09:41:22.660Z,45.67
2018-02-21T09:46:25.623Z,40.53
2018-02-21T09:51:28.247Z,39.27
2018-02-21T09:56:31.625Z,39.43
2018-02-21T10:01:34.242Z,39.53
2018-02-21T10:06:36.994Z,34.23
2018-02-21T10:11:40.443Z,39.57
2018-02-21T10:16:43.501Z,35.27
2018-02-21T10:21:46.137Z,33.87
2018-02-21T10:26:50.451Z,33.60
2018-02-21T10:31:53.067Z,30.93
2018-02-21T10:36:56.508Z,33.53
2018-02-21T10:41:59.133Z,34.03
2018-02-21T10:47:02.011Z,27.20
2018-02-21T10:52:04.635Z,29.47
2018-02-21T10:57:08.108Z,29.40
2018-02-21T11:02:10.771Z,29.20
2018-02-21T11:07:14.264Z,24.23
2018-02-21T11:12:16.896Z,25.23
2018-02-21T11:17:21.317Z,26.30
2018-02-21T11:22:23.949Z,31.20
2018-02-21T11:27:26.722Z,22.77
2018-02-21T11:32:29.376Z,30.37
2018-02-21T11:37:33.107Z,26.73
2018-02-21T11:42:35.714Z,25.63
2018-02-21T11:47:39.090Z,24.47
2018-02-21T11:52:41.732Z,26.57
2018-02-21T11:57:44.486Z,25.30
2018-02-21T12:02:47.093Z,24.33
2018-02-21T12:07:50.677Z,24.33
2018-02-21T12:12:53.304Z,25.13
2018-02-21T12:17:56.158Z,22.00
2018-02-21T12:22:58.742Z,22.40
2018-02-21T12:28:02.011Z,16.10
2018-02-21T12:33:04.660Z,16.00
2018-02-21T12:38:07.930Z,14.63
2018-02-21T12:43:12.055Z,15.30
2018-02-21T12:48:15.322Z,16.10
2018-02-21T12:53:18.018Z,15.07
2018-02-21T12:58:21.522Z,16.50
2018-02-21T13:03:24.880Z,14.17
2018-02-21T13:08:27.547Z,14.60
2018-02-21T13:13:30.937Z,13.73
2018-02-21T13:18:33.723Z,13.87
2018-02-21T13:23:36.361Z,15.93
2018-02-21T13:28:40.709Z,11.73
2018-02-21T13:33:43.332Z,12.10
2018-02-21T13:38:46.912Z,16.60
2018-02-21T13:43:50.680Z,14.20
2018-02-21T13:48:54.176Z,13.63
2018-02-21T13:53:56.803Z,9.27
2018-02-21T13:58:59.474Z,12.03
2018-02-21T14:04:02.118Z,11.70
2018-02-21T14:09:04.993Z,10.20
2018-02-21T14:14:07.773Z,10.73
2018-02-21T14:19:11.152Z,12.27
2018-02-21T14:24:13.770Z,9.00
2018-02-21T14:29:17.482Z,10.43
2018-02-21T14:34:20.106Z,9.83
2018-02-21T14:39:24.037Z,11.67
2018-02-21T14:44:27.413Z,12.57
2018-02-21T14:49:30.364Z,12.20
2018-02-21T14:54:32.995Z,13.00
2018-02-21T14:59:35.853Z,10.63
2018-02-21T15:04:39.256Z,11.17
2018-02-21T15:09:42.191Z,12.43
2018-02-21T15:14:45.780Z,9.97
2018-02-21T15:19:49.149Z,12.90
2018-02-21T15:24:51.767Z,10.23
2018-02-21T15:29:54.826Z,11.20
2018-02-21T15:34:58.231Z,9.77
2018-02-21T15:40:02.054Z,8.10
2018-02-21T15:45:05.451Z,11.17
2018-02-21T15:50:09.640Z,10.40
2018-02-21T15:55:12.258Z,12.47
2018-02-21T16:00:15.627Z,14.17
2018-02-21T16:05:19.011Z,14.70
2018-02-21T16:10:21.983Z,11.10
2018-02-21T16:15:24.572Z,12.43
2018-02-21T16:20:27.876Z,10.93
2018-02-21T16:25:30.503Z,12.27
2018-02-21T16:30:33.355Z,11.77
2018-02-21T16:35:36.080Z,13.17
2018-02-21T16:40:39.555Z,10.67
2018-02-21T16:45:42.248Z,12.60
2018-02-21T16:50:45.236Z,50.70
2018-02-21T16:55:47.837Z,19.10
2018-02-21T17:00:51.203Z,12.77
2018-02-21T17:05:54.607Z,13.83
2018-02-21T17:10:58.347Z,13.17
2018-02-21T17:16:01.724Z,17.40
2018-02-21T17:21:04.778Z,14.17
2018-02-21T17:26:07.399Z,12.30
2018-02-21T17:31:10.156Z,13.07
2018-02-21T17:36:12.884Z,13.13
2018-02-21T17:41:22.657Z,14.37
2018-02-21T17:46:25.559Z,14.67
2018-02-21T17:51:28.559Z,14.50
2018-02-21T17:56:31.393Z,11.30
2018-02-21T18:01:35.194Z,12.63
2018-02-21T18:06:37.885Z,12.77
2018-02-21T18:11:42.187Z,12.70
2018-02-21T18:16:45.032Z,12.33
2018-02-21T18:21:50.101Z,16.97
2018-02-21T18:26:53.665Z,13.17
2018-02-21T18:31:56.532Z,14.07
2018-02-21T18:36:59.428Z,17.83
2018-02-21T18:42:03.191Z,17.20
2018-02-21T18:47:05.833Z,14.03
2018-02-21T18:52:09.824Z,15.87
2018-02-21T18:57:12.578Z,14.03
2018-02-21T19:02:15.797Z,16.43
2018-02-21T19:07:18.462Z,15.37
2018-02-21T19:12:21.995Z,19.03
2018-02-21T19:17:25.455Z,15.27
2018-02-21T19:22:28.921Z,19.37
2018-02-21T19:27:31.578Z,19.67
2018-02-21T19:32:34.682Z,17.17
2018-02-21T19:37:37.393Z,17.30
2018-02-21T19:42:40.906Z,17.30
2018-02-21T19:47:43.725Z,17.80
2018-02-21T19:52:46.796Z,18.90
2018-02-21T19:57:49.487Z,17.97
2018-02-21T20:02:53.024Z,18.57
2018-02-21T20:07:55.644Z,19.07
2018-02-21T20:12:59.019Z,20.53
2018-02-21T20:18:02.542Z,21.17
2018-02-21T20:23:05.754Z,21.93
2018-02-21T20:28:08.421Z,20.87
2018-02-21T20:33:12.817Z,25.33
2018-02-21T20:38:15.471Z,24.00
2018-02-21T20:43:18.956Z,24.63
2018-02-21T20:48:21.783Z,26.93
2018-02-21T20:53:25.079Z,23.60
2018-02-21T20:58:27.835Z,29.33
2018-02-21T21:03:30.676Z,25.80
2018-02-21T21:08:33.310Z,26.67
2018-02-21T21:13:38.800Z,22.40
2018-02-21T21:18:41.515Z,25.63
2018-02-21T21:23:44.376Z,28.10
2018-02-21T21:28:47.587Z,27.00
2018-02-21T21:33:50.399Z,33.00
2018-02-21T21:38:53.130Z,28.70
2018-02-21T21:43:57.687Z,28.90
2018-02-21T21:49:00.571Z,25.27
2018-02-21T21:54:06.317Z,31.77
2018-02-21T21:59:09.788Z,30.03
2018-02-21T22:04:12.569Z,29.43
2018-02-21T22:09:16.082Z,28.90
2018-02-21T22:14:18.887Z,26.17
2018-02-21T22:19:21.688Z,31.50
2018-02-21T22:24:24.578Z,30.07
2018-02-21T22:29:27.994Z,34.33
2018-02-21T22:34:31.733Z,31.47
2018-02-21T22:39:34.866Z,30.67
2018-02-21T22:44:37.998Z,33.10
2018-02-21T22:49:40.647Z,34.07
2018-02-21T22:54:44.580Z,30.73
2018-02-21T22:59:47.271Z,32.67
2018-02-21T23:04:51.007Z,41.93
2018-02-21T23:09:53.736Z,39.90
2018-02-21T23:14:56.943Z,38.93
2018-02-21T23:19:59.593Z,37.77
2018-02-21T23:25:03.016Z,40.60
2018-02-21T23:30:06.735Z,35.73
2018-02-21T23:35:10.796Z,35.50
2018-02-21T23:40:14.097Z,34.80
2018-02-21T23:45:17.832Z,34.57
2018-02-21T23:50:20.456Z,36.03
2018-02-21T23:55:23.203Z,39.07
